createdAt,value
2023-04-22T00:02:29.959Z,3.10
2023-04-22T00:07:31.382Z,3.20
2023-04-22T00:12:33.924Z,2.70
2023-04-22T00:17:35.294Z,3.20
2023-04-22T00:22:36.568Z,4.00
2023-04-22T00:27:38.275Z,3.40
2023-04-22T00:32:39.491Z,3.20
2023-04-22T00:37:40.895Z,3.30
2023-04-22T00:42:43.845Z,3.00
2023-04-22T00:47:45.991Z,3.70
2023-04-22T00:52:47.307Z,3.60
2023-04-22T00:57:50.662Z,2.70
2023-04-22T01:02:54.353Z,3.50
2023-04-22T01:07:55.769Z,3.60
2023-04-22T01:12:57.040Z,3.30
2023-04-22T01:17:59.758Z,3.80
2023-04-22T01:23:03.786Z,4.10
2023-04-22T01:28:05.371Z,3.70
2023-04-22T01:33:07.395Z,2.90
2023-04-22T01:38:11.327Z,3.30
2023-04-22T01:43:12.554Z,3.30
2023-04-22T01:48:13.880Z,2.70
2023-04-22T01:53:15.150Z,3.40
2023-04-22T01:58:16.488Z,2.70
2023-04-22T02:03:17.776Z,3.60
2023-04-22T02:08:19.094Z,3.20
2023-04-22T02:13:20.326Z,2.60
2023-04-22T02:18:21.542Z,3.10
2023-04-22T02:23:24.030Z,2.80
2023-04-22T02:28:25.383Z,3.90
2023-04-22T02:33:26.700Z,3.00
2023-04-22T02:38:27.887Z,3.50
2023-04-22T02:43:29.262Z,3.70
2023-04-22T02:48:30.513Z,4.00
2023-04-22T02:53:31.816Z,4.00
2023-04-22T02:58:33.018Z,3.40
2023-04-22T03:03:34.459Z,3.60
2023-04-22T03:08:35.841Z,7.30
2023-04-22T03:13:37.018Z,6.90
2023-04-22T03:18:38.243Z,4.70
2023-04-22T03:23:39.732Z,4.40
2023-04-22T03:28:40.990Z,14.90
2023-04-22T03:33:42.155Z,5.00
2023-04-22T03:38:43.388Z,4.40
2023-04-22T03:43:44.601Z,4.60
2023-04-22T03:48:45.837Z,4.70
2023-04-22T03:53:47.018Z,6.20
2023-04-22T03:58:48.179Z,5.10
2023-04-22T04:03:49.620Z,5.20
2023-04-22T04:08:51.355Z,4.60
2023-04-22T04:13:52.550Z,7.40
2023-04-22T04:18:53.967Z,6.40
2023-04-22T04:23:55.592Z,5.40
2023-04-22T04:28:56.780Z,5.40
2023-04-22T04:33:58.318Z,4.60
2023-04-22T04:38:59.502Z,4.90
2023-04-22T04:44:00.804Z,4.60
2023-04-22T04:49:03.877Z,5.10
2023-04-22T04:54:05.201Z,4.40
2023-04-22T04:59:06.375Z,5.90
2023-04-22T05:04:07.862Z,5.90
2023-04-22T05:09:09.759Z,4.70
2023-04-22T05:14:10.958Z,3.70
2023-04-22T05:19:12.174Z,4.30
2023-04-22T05:24:13.386Z,4.90
2023-04-22T05:29:14.678Z,4.20
2023-04-22T05:34:15.937Z,3.60
2023-04-22T05:39:18.203Z,4.40
2023-04-22T05:44:19.757Z,5.30
2023-04-22T05:49:20.994Z,4.90
2023-04-22T05:54:22.218Z,4.30
2023-04-22T05:59:23.470Z,3.20
2023-04-22T06:04:24.971Z,4.70
2023-04-22T06:09:26.545Z,4.20
2023-04-22T06:14:27.758Z,4.20
2023-04-22T06:19:28.988Z,3.20
2023-04-22T06:24:30.253Z,3.50
2023-04-22T06:29:31.430Z,3.80
2023-04-22T06:34:32.592Z,4.30
2023-04-22T06:39:33.767Z,3.90
2023-04-22T06:44:34.956Z,3.80
2023-04-22T06:49:37.986Z,4.00
2023-04-22T06:54:39.510Z,3.70
2023-04-22T06:59:41.488Z,2.90
2023-04-22T07:04:44.315Z,3.20
2023-04-22T07:09:45.882Z,3.00
2023-04-22T07:14:48.938Z,3.20
2023-04-22T07:19:50.160Z,3.20
2023-04-22T07:24:51.511Z,3.60
2023-04-22T07:29:52.732Z,3.20
2023-04-22T07:34:54.026Z,2.90
2023-04-22T07:39:55.182Z,2.80
2023-04-22T07:44:56.319Z,2.60
2023-04-22T07:49:57.574Z,2.80
2023-04-22T07:54:58.772Z,5.10
2023-04-22T08:00:01.140Z,2.60
2023-04-22T08:05:02.567Z,2.30
2023-04-22T08:10:05.396Z,9.70
2023-04-22T08:15:07.161Z,3.40
2023-04-22T08:20:08.829Z,2.70
2023-04-22T08:25:10.748Z,2.10
2023-04-22T08:30:12.788Z,2.70
2023-04-22T08:35:14.407Z,2.50
2023-04-22T08:40:15.617Z,2.20
2023-04-22T08:45:17.624Z,1.80
2023-04-22T08:50:21.840Z,1.60
2023-04-22T08:55:24.227Z,2.00
2023-04-22T09:00:26.572Z,2.30
2023-04-22T09:05:33.168Z,1.70
2023-04-22T09:10:38.457Z,2.30
2023-04-22T09:15:39.728Z,1.80
2023-04-22T09:20:42.047Z,1.70
2023-04-22T09:25:45.682Z,2.80
2023-04-22T09:30:47.023Z,1.80
2023-04-22T09:35:48.156Z,1.10
2023-04-22T09:40:49.554Z,1.50
2023-04-22T09:45:50.939Z,1.30
2023-04-22T09:50:52.125Z,1.60
2023-04-22T09:55:55.145Z,2.10
2023-04-22T10:01:02.595Z,2.00
2023-04-22T10:06:04.862Z,1.40
2023-04-22T10:11:06.187Z,1.50
2023-04-22T10:16:07.851Z,1.70
2023-04-22T10:21:09.361Z,1.80
2023-04-22T10:26:10.631Z,1.30
2023-04-22T10:31:21.872Z,1.40
2023-04-22T10:36:23.070Z,1.50
2023-04-22T10:41:34.989Z,1.40
2023-04-22T10:46:39.496Z,1.20
2023-04-22T10:51:43.456Z,1.60
2023-04-22T10:57:06.101Z,1.10
2023-04-22T11:02:10.999Z,1.10
2023-04-22T11:07:25.773Z,2.00
2023-04-22T11:12:38.862Z,1.60
2023-04-22T11:17:46.794Z,1.10
2023-04-22T11:22:51.789Z,1.30
2023-04-22T11:27:54.480Z,1.70
2023-04-22T11:32:59.246Z,1.40
2023-04-22T11:38:05.691Z,1.10
2023-04-22T11:43:09.250Z,1.20
2023-04-22T11:48:11.183Z,0.90
2023-04-22T11:53:23.098Z,1.60
2023-04-22T11:58:27.408Z,1.20
2023-04-22T12:03:30.582Z,1.10
2023-04-22T12:08:35.976Z,1.00
2023-04-22T12:13:37.066Z,1.10
2023-04-22T12:19:02.503Z,1.20
2023-04-22T12:24:10.532Z,0.90
2023-04-22T12:29:11.754Z,1.20
2023-04-22T12:34:12.977Z,1.10
2023-04-22T12:39:14.650Z,1.00
2023-04-22T12:44:16.002Z,1.00
2023-04-22T12:49:17.239Z,1.00
2023-04-22T12:54:20.060Z,1.30
2023-04-22T12:59:21.263Z,1.00
2023-04-22T13:04:22.507Z,0.90
2023-04-22T13:09:25.543Z,1.20
2023-04-22T13:14:26.841Z,1.50
2023-04-22T13:19:29.009Z,1.70
2023-04-22T13:24:30.225Z,1.10
2023-04-22T13:29:32.366Z,1.30
2023-04-22T13:34:33.658Z,1.30
2023-04-22T13:39:34.944Z,1.40
2023-04-22T13:44:36.332Z,1.40
2023-04-22T13:49:37.794Z,1.20
2023-04-22T13:54:39.244Z,1.20
2023-04-22T13:59:40.899Z,1.30
2023-04-22T14:04:42.306Z,1.30
2023-04-22T14:09:43.836Z,1.20
2023-04-22T14:14:45.081Z,1.10
2023-04-22T14:19:46.320Z,1.20
2023-04-22T14:24:48.100Z,1.20
2023-04-22T14:29:52.618Z,0.90
2023-04-22T14:34:53.842Z,1.50
2023-04-22T14:39:55.108Z,1.30
2023-04-22T14:44:56.610Z,1.20
2023-04-22T14:49:57.814Z,1.20
2023-04-22T14:55:03.617Z,1.40
2023-04-22T15:00:11.332Z,1.30
2023-04-22T15:05:12.586Z,1.10
2023-04-22T15:10:14.401Z,0.80
2023-04-22T15:15:17.619Z,1.40
2023-04-22T15:20:18.808Z,1.20
2023-04-22T15:25:20.062Z,1.10
2023-04-22T15:30:22.241Z,1.20
2023-04-22T15:35:24.753Z,1.30
2023-04-22T15:40:26.210Z,1.20
2023-04-22T15:45:27.534Z,1.20
2023-04-22T15:50:28.747Z,1.30
2023-04-22T15:55:29.971Z,1.20
2023-04-22T16:00:31.218Z,1.10
2023-04-22T16:05:34.019Z,1.10
2023-04-22T16:10:35.214Z,1.10
2023-04-22T16:15:36.784Z,1.40
2023-04-22T16:20:38.513Z,1.20
2023-04-22T16:25:39.932Z,1.30
2023-04-22T16:30:41.269Z,1.40
2023-04-22T16:35:42.479Z,1.50
2023-04-22T16:40:43.791Z,1.30
2023-04-22T16:45:45.385Z,1.50
2023-04-22T16:50:47.283Z,1.00
2023-04-22T16:55:48.575Z,1.30
2023-04-22T17:00:50.430Z,1.10
2023-04-22T17:05:52.260Z,1.60
2023-04-22T17:10:53.596Z,1.40
2023-04-22T17:15:55.011Z,1.60
2023-04-22T17:20:56.382Z,1.60
2023-04-22T17:25:58.759Z,1.70
2023-04-22T17:31:00.352Z,4.80
2023-04-22T17:36:05.590Z,4.70
2023-04-22T17:41:07.171Z,3.40
2023-04-22T17:46:09.198Z,2.40
2023-04-22T17:51:10.783Z,2.80
2023-04-22T17:56:11.972Z,5.30
2023-04-22T18:01:13.249Z,5.40
2023-04-22T18:06:14.609Z,3.70
2023-04-22T18:11:16.044Z,6.60
2023-04-22T18:16:17.215Z,5.40
2023-04-22T18:21:18.611Z,6.10
2023-04-22T18:26:19.902Z,4.60
2023-04-22T18:31:21.141Z,4.30
2023-04-22T18:36:22.553Z,4.50
2023-04-22T18:41:26.979Z,6.80
2023-04-22T18:46:28.273Z,9.10
2023-04-22T18:51:30.068Z,7.30
2023-04-22T18:56:32.714Z,6.50
2023-04-22T19:01:34.949Z,4.80
2023-04-22T19:06:36.167Z,8.70
2023-04-22T19:11:38.034Z,19.90
2023-04-22T19:16:39.782Z,14.00
2023-04-22T19:21:41.054Z,7.40
2023-04-22T19:26:42.304Z,6.40
2023-04-22T19:31:43.550Z,6.50
2023-04-22T19:36:44.829Z,6.40
2023-04-22T19:41:46.064Z,9.20
2023-04-22T19:46:47.796Z,10.70
2023-04-22T19:51:50.401Z,10.80
2023-04-22T19:56:53.081Z,8.70
2023-04-22T20:01:54.739Z,9.80
2023-04-22T20:06:57.683Z,7.70
2023-04-22T20:11:59.398Z,7.80
2023-04-22T20:17:01.669Z,10.10
2023-04-22T20:22:06.196Z,7.60
2023-04-22T20:27:07.713Z,14.80
2023-04-22T20:32:10.640Z,51.20
2023-04-22T20:37:12.942Z,16.70
2023-04-22T20:42:14.462Z,8.30
2023-04-22T20:47:15.698Z,7.70
2023-04-22T20:52:17.079Z,7.40
2023-04-22T20:57:18.318Z,7.10
2023-04-22T21:02:21.041Z,9.20
2023-04-22T21:07:24.264Z,7.00
2023-04-22T21:12:26.587Z,8.30
2023-04-22T21:17:31.637Z,9.30
2023-04-22T21:22:34.310Z,7.80
2023-04-22T21:27:36.443Z,8.00
2023-04-22T21:32:39.966Z,5.90
2023-04-22T21:37:41.296Z,6.40
2023-04-22T21:42:42.454Z,6.90
2023-04-22T21:47:43.830Z,8.00
2023-04-22T21:52:45.603Z,7.50
2023-04-22T21:57:46.827Z,8.20
2023-04-22T22:02:48.241Z,7.80
2023-04-22T22:07:49.580Z,6.70
2023-04-22T22:12:50.849Z,7.40
2023-04-22T22:17:52.068Z,8.20
2023-04-22T22:22:53.605Z,6.50
2023-04-22T22:27:54.835Z,6.60
2023-04-22T22:32:56.119Z,7.80
2023-04-22T22:37:57.390Z,7.70
2023-04-22T22:42:58.597Z,6.70
2023-04-22T22:47:59.884Z,7.10
2023-04-22T22:53:01.101Z,6.30
2023-04-22T22:58:02.382Z,6.40
2023-04-22T23:03:03.923Z,5.80
2023-04-22T23:08:06.142Z,5.70
2023-04-22T23:13:07.343Z,5.20
2023-04-22T23:18:08.517Z,5.60
2023-04-22T23:23:13.075Z,5.30
2023-04-22T23:28:14.796Z,4.50
2023-04-22T23:33:23.190Z,4.10
2023-04-22T23:38:24.372Z,4.30
2023-04-22T23:43:25.636Z,5.50
2023-04-22T23:48:26.870Z,5.50
2023-04-22T23:53:28.080Z,5.40
2023-04-22T23:58:29.917Z,5.90
